Paradise, California
Current Conditions -  °F | °C
As of 12:47 PM on Monday 24 Nov 2014 (Local Time) from KCIC Reporting Station
Few Clouds Few Clouds  
Wind Chill: 15°   Ceiling: Unl
Heat Index: 15°   Visibility: 80mi
Dew Point:   Wind: 9mph
Humidity: 48%   Direction: 310°NW
Pressure: 30.37"   Gusts: NA
Location:  39.75°N, 121.6°W
Report Text: KCIC 242047Z 31008KT 80SM FEW250 15/04 A3037
Loading
Personal Weather Stations






























Interactive Weather Map New forecast layout! Learn more

10-Day Weather Forecast

Advertisements
Track Severe Weather on mobile